Stephen R Warden — WDC6523 — position and weather

sailwx.info

Track history (hours):
 
Tides and Currents Weather Stations Pressure Air Temp Water Temp Dewpoint Dewpoint Depression Visibility Wind Speed Wind Dir Waves Ship Positions

Stephen R Warden

Owner: American Commercial Lines LLC, Jeffersonvile, IN. More information available from US FCC via Universal Licensing System and Coast Guard Vessel Documentation Center.

Last reported at 2015-Aug-30 13:18 UTC. Time now 2015-Aug-31 00:35 UTC.
Position N 29°56' W 090°04'.

Length 37 m; draft 3 m.

Type: Towing. MMSI: 367057460.

Date/timePositionNaut miles runAvg speedWind from/ knotsBaromVisibWave heightAir tempDewpointWater temp
2015-Aug-30 13:18N 29°56' W 090°04'4 1.2
2015-Aug-30 10:28N 29°56' W 089°60'0 0.0
2015-Aug-30 09:21N 29°56' W 089°60'0 0.0
2015-Aug-30 07:19N 29°56' W 089°60'5 3.8
2015-Aug-30 06:06N 29°54' W 089°55'18 0.9
2015-Aug-29 11:22N 29°58' W 090°15'6 7.2
2015-Aug-29 10:32N 29°56' W 090°21'11 5.7
2015-Aug-29 08:31N 30°03' W 090°32'  
2015-Aug-25 03:30N 29°55' W 090°06'5 4.3
2015-Aug-25 02:15N 29°56' W 089°60'1 0.4
2015-Aug-25 00:09N 29°57' W 090°00'  
2015-Aug-21 02:32N 29°56' W 089°60'0 0.0
2015-Aug-21 01:12N 29°56' W 089°60'  
Track history (hours):
 
Tides and Currents Weather Stations Pressure Air Temp Water Temp Dewpoint Dewpoint Depression Visibility Wind Speed Wind Dir Waves Ship Positions

Stephen R Warden

Owner: American Commercial Lines LLC, Jeffersonvile, IN. More information available from US FCC via Universal Licensing System and Coast Guard Vessel Documentation Center.

Last reported at 2015-Aug-30 13:18 UTC. Time now 2015-Aug-31 00:35 UTC.
Position N 29°56' W 090°04'.

Length 37 m; draft 3 m.

Type: Towing. MMSI: 367057460.

Date/timePositionNaut miles runAvg speedWind from/ knotsBaromVisibWave heightAir tempDewpointWater temp
2015-Aug-30 13:18N 29°56' W 090°04'4 1.2
2015-Aug-30 10:28N 29°56' W 089°60'0 0.0
2015-Aug-30 09:21N 29°56' W 089°60'0 0.0
2015-Aug-30 07:19N 29°56' W 089°60'5 3.8
2015-Aug-30 06:06N 29°54' W 089°55'18 0.9
2015-Aug-29 11:22N 29°58' W 090°15'6 7.2
2015-Aug-29 10:32N 29°56' W 090°21'11 5.7
2015-Aug-29 08:31N 30°03' W 090°32'  
2015-Aug-25 03:30N 29°55' W 090°06'5 4.3
2015-Aug-25 02:15N 29°56' W 089°60'1 0.4
2015-Aug-25 00:09N 29°57' W 090°00'  
2015-Aug-21 02:32N 29°56' W 089°60'0 0.0
2015-Aug-21 01:12N 29°56' W 089°60'  

Dump ship's entire track history